Time;durP1;ratioP1;P1;durP2;ratioP2;P2;SDS_P1;SDS_P2;PMS_P1;PMS_P2;Temp;Humidity;BMP_temperature;BMP_pressure;BME280_temperature;BME280_humidity;BME280_pressure;Samples;Min_cycle;Max_cycle;Signal;HPM_P1;HPM_P2
2022/09/11 00:01:27;;;;;;;4.75;0.80;;;20.50;64.50;;;;;;5082483;28;20044;-36
2022/09/11 00:03:56;;;;;;;3.10;1.00;;;20.50;64.80;;;;;;5089835;28;20020;-41
2022/09/11 00:06:22;;;;;;;1.77;0.80;;;20.50;65.60;;;;;;5092014;28;20038;-55
2022/09/11 00:08:52;;;;;;;1.50;0.98;;;20.50;65.20;;;;;;5078990;28;20036;-35
2022/09/11 00:11:19;;;;;;;1.35;0.80;;;20.50;65.50;;;;;;5090091;28;20047;-37
2022/09/11 00:13:48;;;;;;;0.80;0.68;;;20.50;65.40;;;;;;5076522;28;20032;-36
2022/09/11 00:16:33;;;;;;;1.40;0.98;;;20.50;65.40;;;;;;5090433;28;20560;-34
2022/09/11 00:19:08;;;;;;;1.23;0.90;;;20.40;65.30;;;;;;5071483;28;20060;-34
2022/09/11 00:21:34;;;;;;;1.23;1.00;;;20.40;64.80;;;;;;5096649;28;20409;-34
2022/09/11 00:24:01;;;;;;;0.63;0.63;;;20.40;64.90;;;;;;5070269;28;20039;-35
2022/09/11 00:26:47;;;;;;;2.50;1.00;;;20.40;64.70;;;;;;5074937;28;20036;-35
2022/09/11 00:29:13;;;;;;;1.17;1.00;;;20.40;64.80;;;;;;5046811;28;20123;-34
2022/09/11 00:31:40;;;;;;;1.17;0.88;;;20.30;64.70;;;;;;5042185;28;20053;-35
2022/09/11 00:34:25;;;;;;;1.58;0.98;;;20.40;65.00;;;;;;5057224;28;20041;-34
2022/09/11 00:37:09;;;;;;;1.08;0.98;;;20.30;64.70;;;;;;5031075;28;20051;-34
2022/09/11 00:39:38;;;;;;;2.15;0.80;;;20.30;64.70;;;;;;5038992;28;20030;-34
2022/09/11 00:42:05;;;;;;;0.85;0.85;;;20.30;65.00;;;;;;5040192;28;20099;-34
2022/09/11 00:44:31;;;;;;;0.95;0.80;;;20.30;65.00;;;;;;5037746;28;20113;-36
2022/09/11 00:47:01;;;;;;;3.53;0.80;;;20.20;65.00;;;;;;5043864;28;20041;-37
2022/09/11 00:49:40;;;;;;;1.10;1.00;;;20.20;64.90;;;;;;5022705;28;20029;-35
2022/09/11 00:52:27;;;;;;;1.30;1.08;;;20.20;64.80;;;;;;5023349;28;20041;-35
2022/09/11 00:54:56;;;;;;;1.52;1.10;;;20.20;64.80;;;;;;5041158;28;20102;-36
2022/09/11 00:57:25;;;;;;;1.60;0.85;;;20.20;65.00;;;;;;5033071;28;20029;-41
2022/09/11 00:59:54;;;;;;;1.95;1.38;;;20.10;64.90;;;;;;5039085;28;20569;-44
2022/09/11 01:02:21;;;;;;;1.83;1.20;;;20.10;66.60;;;;;;5039454;28;20049;-44
2022/09/11 01:04:47;;;;;;;1.30;1.10;;;20.20;66.60;;;;;;5034449;28;20148;-44
2022/09/11 01:07:14;;;;;;;1.98;1.30;;;20.10;66.10;;;;;;5073491;28;20522;-41
2022/09/11 01:09:40;;;;;;;1.80;1.45;;;20.20;66.50;;;;;;5077773;28;20099;-42
2022/09/11 01:12:22;;;;;;;1.50;1.13;;;20.10;66.60;;;;;;5078335;28;20045;-42
2022/09/11 01:14:54;;;;;;;1.95;1.25;;;20.10;66.10;;;;;;5077879;28;20033;-42
2022/09/11 01:17:50;;;;;;;1.83;1.30;;;20.10;66.10;;;;;;5082802;28;20075;-41
2022/09/11 01:20:34;;;;;;;4.68;2.00;;;20.10;66.10;;;;;;5076590;28;20055;-43
2022/09/11 01:23:09;;;;;;;2.33;1.45;;;20.10;66.80;;;;;;5085331;28;20097;-43
2022/09/11 01:25:54;;;;;;;4.18;1.85;;;20.10;66.00;;;;;;5078594;28;20036;-43
2022/09/11 01:28:24;;;;;;;4.07;1.83;;;20.10;66.10;;;;;;5087494;28;20765;-42
2022/09/11 01:30:54;;;;;;;6.07;1.77;;;20.10;65.90;;;;;;5060347;28;20048;-44
2022/09/11 01:33:29;;;;;;;3.28;1.35;;;20.10;66.80;;;;;;5079794;28;20036;-42
2022/09/11 01:36:09;;;;;;;2.10;1.33;;;20.10;66.10;;;;;;5083356;28;20059;-43
2022/09/11 01:38:50;;;;;;;4.30;1.85;;;20.10;65.80;;;;;;5072686;28;20024;-46
2022/09/11 01:41:28;;;;;;;5.00;1.67;;;20.10;65.90;;;;;;5063651;28;20024;-42
2022/09/11 01:44:05;;;;;;;3.30;1.60;;;20.10;66.10;;;;;;5065131;28;23203;-43
2022/09/11 01:46:52;;;;;;;3.10;1.33;;;20.10;65.90;;;;;;5079651;28;20392;-41
2022/09/11 01:49:34;;;;;;;2.72;1.45;;;20.10;66.30;;;;;;5080991;28;20279;-43
2022/09/11 01:52:02;;;;;;;2.92;1.30;;;20.10;66.70;;;;;;5071324;28;20043;-43
2022/09/11 01:54:33;;;;;;;2.22;0.98;;;20.10;66.50;;;;;;5078258;28;20020;-44
2022/09/11 01:57:03;;;;;;;3.42;1.38;;;20.10;66.90;;;;;;5074852;28;20036;-38
2022/09/11 01:59:51;;;;;;;2.72;1.20;;;20.10;68.00;;;;;;5078298;28;20023;-38
2022/09/11 02:02:21;;;;;;;1.95;1.17;;;20.10;67.50;;;;;;5079072;28;20039;-38
2022/09/11 02:05:20;;;;;;;2.85;1.05;;;20.10;66.80;;;;;;5071921;28;20036;-37
2022/09/11 02:07:58;;;;;;;2.13;1.20;;;20.10;66.00;;;;;;5073696;28;20033;-35
2022/09/11 02:10:39;;;;;;;1.20;0.90;;;20.10;66.40;;;;;;5082311;28;20250;-35
2022/09/11 02:13:14;;;;;;;1.60;1.20;;;20.10;66.30;;;;;;5082331;28;20105;-34
2022/09/11 02:15:52;;;;;;;1.30;0.90;;;20.10;66.10;;;;;;5076939;28;20028;-35
2022/09/11 02:18:25;;;;;;;1.05;0.88;;;20.10;65.90;;;;;;5087737;28;20032;-35
2022/09/11 02:20:52;;;;;;;1.52;1.17;;;20.10;66.10;;;;;;5082368;28;20120;-35
2022/09/11 02:23:18;;;;;;;1.00;0.90;;;20.00;66.40;;;;;;5077755;28;20029;-34
2022/09/11 02:25:45;;;;;;;1.85;0.80;;;20.10;65.00;;;;;;5081626;28;20020;-36
2022/09/11 02:28:11;;;;;;;1.55;1.05;;;20.00;65.00;;;;;;5100109;28;20032;-34
2022/09/11 02:30:40;;;;;;;1.50;1.00;;;20.00;65.00;;;;;;5081410;28;20140;-38
2022/09/11 02:33:37;;;;;;;1.40;0.98;;;20.00;65.50;;;;;;5071162;28;20036;-34
2022/09/11 02:36:21;;;;;;;1.42;0.90;;;20.00;64.70;;;;;;5082700;28;20025;-33
2022/09/11 02:39:02;;;;;;;1.00;0.80;;;20.00;64.40;;;;;;5087067;28;20031;-34
2022/09/11 02:41:54;;;;;;;1.08;0.90;;;20.00;64.40;;;;;;5076337;28;20084;-34
2022/09/11 02:44:30;;;;;;;1.67;1.00;;;20.00;65.00;;;;;;5087850;28;20043;-34
2022/09/11 02:47:28;;;;;;;1.30;1.00;;;20.00;66.70;;;;;;5081042;28;20032;-34
2022/09/11 02:50:09;;;;;;;1.58;1.23;;;20.00;67.20;;;;;;5069122;28;20115;-35
2022/09/11 02:52:52;;;;;;;1.88;1.20;;;20.00;67.90;;;;;;5075116;28;20028;-34
2022/09/11 02:55:55;;;;;;;1.73;0.98;;;20.00;68.60;;;;;;5099383;28;20038;-34
2022/09/11 02:58:28;;;;;;;0.90;0.70;;;20.00;69.00;;;;;;5091666;28;20039;-34
2022/09/11 03:00:57;;;;;;;1.10;1.00;;;20.00;69.50;;;;;;5092524;28;20040;-34
2022/09/11 03:03:23;;;;;;;2.65;1.00;;;20.00;70.60;;;;;;5065817;28;20029;-34
2022/09/11 03:05:50;;;;;;;1.10;0.98;;;20.00;70.10;;;;;;5071948;28;20062;-35
2022/09/11 03:08:16;;;;;;;1.25;0.93;;;20.00;70.30;;;;;;5072501;28;20028;-35
2022/09/11 03:10:45;;;;;;;1.70;1.10;;;20.00;70.30;;;;;;5083380;28;20044;-34
2022/09/11 03:13:14;;;;;;;1.60;0.95;;;20.00;70.50;;;;;;5085122;28;20025;-34
2022/09/11 03:15:44;;;;;;;1.33;0.80;;;20.10;70.70;;;;;;5078359;28;20124;-34
2022/09/11 03:18:14;;;;;;;3.88;1.13;;;20.10;70.80;;;;;;5071876;28;20026;-35
2022/09/11 03:20:45;;;;;;;1.50;0.90;;;20.10;70.90;;;;;;5085181;28;20039;-35
2022/09/11 03:23:12;;;;;;;0.77;0.75;;;20.10;70.90;;;;;;5082737;28;20028;-34
2022/09/11 03:25:39;;;;;;;2.33;1.10;;;20.10;71.00;;;;;;5088658;28;20035;-34
2022/09/11 03:28:05;;;;;;;1.83;1.02;;;20.10;71.10;;;;;;5081993;28;20059;-34
2022/09/11 03:30:32;;;;;;;1.40;1.00;;;20.10;71.10;;;;;;5086700;28;20523;-34
2022/09/11 03:32:59;;;;;;;1.10;1.00;;;20.10;71.20;;;;;;5083291;28;20504;-34
2022/09/11 03:35:26;;;;;;;0.93;0.73;;;20.20;71.30;;;;;;5083611;28;20033;-35
2022/09/11 03:37:54;;;;;;;1.25;1.08;;;20.20;71.40;;;;;;5087918;28;20028;-34
2022/09/11 03:40:20;;;;;;;2.13;1.02;;;20.20;71.30;;;;;;5085362;28;20055;-34
2022/09/11 03:42:46;;;;;;;1.10;0.90;;;20.20;71.50;;;;;;5078764;28;20481;-34
2022/09/11 03:45:13;;;;;;;1.10;1.00;;;20.20;71.50;;;;;;5082624;28;20032;-35
2022/09/11 03:48:00;;;;;;;1.30;0.90;;;20.20;71.50;;;;;;5077933;28;20045;-35
2022/09/11 03:50:26;;;;;;;1.38;1.00;;;20.30;71.70;;;;;;5082990;28;20060;-34
2022/09/11 03:52:53;;;;;;;1.13;0.90;;;20.30;71.60;;;;;;5080739;28;20546;-34
2022/09/11 03:55:19;;;;;;;0.93;0.82;;;20.30;71.70;;;;;;5072792;28;20044;-35
2022/09/11 03:57:45;;;;;;;1.33;0.82;;;20.30;71.70;;;;;;5078947;28;20032;-34
2022/09/11 04:00:11;;;;;;;1.23;0.90;;;20.30;71.70;;;;;;5079170;28;20024;-35
2022/09/11 04:02:37;;;;;;;1.23;1.00;;;20.30;71.70;;;;;;5083828;28;20056;-34
2022/09/11 04:05:04;;;;;;;1.30;0.90;;;20.30;71.80;;;;;;5077434;28;20064;-35
2022/09/11 04:07:30;;;;;;;1.27;1.00;;;20.40;71.90;;;;;;5079215;28;20040;-35
2022/09/11 04:09:57;;;;;;;1.23;0.90;;;20.40;71.90;;;;;;5079979;28;20033;-34
2022/09/11 04:12:23;;;;;;;2.47;0.82;;;20.40;71.90;;;;;;5077526;28;20047;-35
2022/09/11 04:14:49;;;;;;;2.83;0.87;;;20.40;71.80;;;;;;5079397;28;20059;-35
2022/09/11 04:17:16;;;;;;;1.77;0.80;;;20.40;71.50;;;;;;5080411;28;20043;-34
2022/09/11 04:19:42;;;;;;;0.90;0.80;;;20.40;71.30;;;;;;5078881;28;20033;-35
2022/09/11 04:22:08;;;;;;;1.20;0.60;;;20.50;71.10;;;;;;5081712;28;20042;-35
2022/09/11 04:24:34;;;;;;;0.80;0.70;;;20.50;71.10;;;;;;5081212;28;20067;-35
2022/09/11 04:27:00;;;;;;;0.90;0.70;;;20.50;71.00;;;;;;5083108;28;20036;-35
2022/09/11 04:29:27;;;;;;;1.00;0.70;;;20.50;71.00;;;;;;5077853;28;20025;-34
2022/09/11 04:31:54;;;;;;;1.33;0.60;;;20.50;71.00;;;;;;5080549;28;20056;-34
2022/09/11 04:34:21;;;;;;;0.90;0.70;;;20.50;70.90;;;;;;5085077;28;20062;-35
2022/09/11 04:36:47;;;;;;;1.67;0.70;;;20.60;70.80;;;;;;5082081;28;20082;-35
2022/09/11 04:39:13;;;;;;;0.65;0.55;;;20.60;70.80;;;;;;5082512;28;20088;-35
2022/09/11 04:41:39;;;;;;;0.63;0.50;;;20.60;70.70;;;;;;5083978;28;20047;-35
2022/09/11 04:44:05;;;;;;;1.17;0.70;;;20.60;70.70;;;;;;5079829;28;20611;-35
2022/09/11 04:46:32;;;;;;;0.63;0.50;;;20.60;70.70;;;;;;5085133;28;20036;-35
2022/09/11 04:48:58;;;;;;;1.85;0.57;;;20.60;71.40;;;;;;5081622;28;20035;-35
2022/09/11 04:51:25;;;;;;;0.30;0.30;;;20.60;70.70;;;;;;5086388;28;20033;-35
2022/09/11 04:53:51;;;;;;;;;;;20.70;70.70;;;;;;5085876;28;20062;-35
2022/09/11 04:56:20;;;;;;;0.70;0.55;;;20.70;70.70;;;;;;5082361;28;19916;-35
2022/09/11 04:58:52;;;;;;;0.57;0.45;;;20.70;70.70;;;;;;5080016;28;20044;-35
2022/09/11 05:01:18;;;;;;;0.75;0.60;;;20.70;70.70;;;;;;5081345;28;20098;-35
2022/09/11 05:03:44;;;;;;;0.50;0.50;;;20.70;70.80;;;;;;5085278;28;20032;-34
2022/09/11 05:06:14;;;;;;;1.05;0.50;;;20.70;70.90;;;;;;5083194;28;20040;-34
2022/09/11 05:08:40;;;;;;;0.55;0.45;;;20.70;70.80;;;;;;5079241;28;20028;-35
2022/09/11 05:11:06;;;;;;;0.68;0.50;;;20.70;70.90;;;;;;5081922;28;20040;-34
2022/09/11 05:13:32;;;;;;;0.35;0.30;;;20.80;70.90;;;;;;5080540;28;20161;-35
2022/09/11 05:16:08;;;;;;;0.40;0.40;;;20.80;71.00;;;;;;5082291;28;20047;-34
2022/09/11 05:18:34;;;;;;;0.65;0.40;;;20.80;71.00;;;;;;5085143;28;20058;-34
2022/09/11 05:21:14;;;;;;;0.88;0.43;;;20.80;70.90;;;;;;5078421;28;20028;-34
2022/09/11 05:23:40;;;;;;;0.40;0.40;;;20.80;70.90;;;;;;5083791;28;20037;-34
2022/09/11 05:26:12;;;;;;;0.50;0.50;;;20.80;71.00;;;;;;5084799;28;20028;-34
2022/09/11 05:28:38;;;;;;;0.40;0.30;;;20.90;70.90;;;;;;5084138;28;20055;-35
2022/09/11 05:31:14;;;;;;;0.30;0.30;;;20.90;71.20;;;;;;5081446;28;20063;-34
2022/09/11 05:33:40;;;;;;;0.50;0.40;;;20.90;71.30;;;;;;5080534;28;20073;-34
2022/09/11 05:36:07;;;;;;;0.30;0.30;;;20.90;71.20;;;;;;5083012;28;20035;-35
2022/09/11 05:38:53;;;;;;;0.40;0.32;;;20.90;71.20;;;;;;5080580;28;20036;-34
2022/09/11 05:41:19;;;;;;;0.47;0.40;;;20.90;71.00;;;;;;5078333;28;20071;-34
2022/09/11 05:43:45;;;;;;;0.55;0.50;;;20.90;71.00;;;;;;5082108;28;20100;-35
2022/09/11 05:46:13;;;;;;;0.30;0.30;;;21.00;71.10;;;;;;5083101;28;20042;-35
2022/09/11 05:48:39;;;;;;;0.60;0.50;;;21.00;71.00;;;;;;5076127;28;20036;-35
2022/09/11 05:51:09;;;;;;;0.50;0.40;;;21.00;71.10;;;;;;5078904;28;20075;-34
2022/09/11 05:53:36;;;;;;;0.65;0.40;;;21.00;71.00;;;;;;5059559;28;20024;-36
2022/09/11 05:56:16;;;;;;;0.40;0.30;;;21.00;71.00;;;;;;5076664;28;20108;-35
2022/09/11 05:58:45;;;;;;;0.75;0.60;;;21.00;71.00;;;;;;5075565;28;20020;-35
2022/09/11 06:01:12;;;;;;;0.47;0.47;;;21.00;71.00;;;;;;5078018;28;20036;-35
2022/09/11 06:03:39;;;;;;;0.32;0.30;;;21.00;71.00;;;;;;5074702;28;20043;-35
2022/09/11 06:06:10;;;;;;;0.50;0.50;;;21.00;71.10;;;;;;5079888;28;20028;-34
2022/09/11 06:08:36;;;;;;;0.60;0.60;;;21.00;71.00;;;;;;5077494;28;20296;-35
2022/09/11 06:11:05;;;;;;;0.47;0.40;;;21.10;71.10;;;;;;5082855;28;20879;-34
2022/09/11 06:13:33;;;;;;;0.68;0.40;;;21.10;71.10;;;;;;5079516;28;20068;-35
2022/09/11 06:15:59;;;;;;;0.40;0.40;;;21.10;71.10;;;;;;5073808;28;20070;-34
2022/09/11 06:18:25;;;;;;;0.73;0.40;;;21.10;71.20;;;;;;5074310;28;20624;-35
2022/09/11 06:20:59;;;;;;;0.40;0.40;;;21.10;71.40;;;;;;5071131;28;20024;-35
2022/09/11 06:23:25;;;;;;;0.70;0.32;;;21.10;71.50;;;;;;5076086;28;20052;-35
2022/09/11 06:25:53;;;;;;;0.80;0.40;;;21.10;71.50;;;;;;5080518;28;20036;-35
2022/09/11 06:28:22;;;;;;;0.30;0.30;;;21.10;71.50;;;;;;5086868;28;20049;-34
2022/09/11 06:30:52;;;;;;;0.47;0.40;;;21.10;71.50;;;;;;5083600;28;20106;-34
2022/09/11 06:33:22;;;;;;;0.57;0.40;;;21.10;71.50;;;;;;5074997;28;20029;-34
2022/09/11 06:36:02;;;;;;;0.40;0.40;;;21.10;71.50;;;;;;5081863;28;20044;-34
2022/09/11 06:38:30;;;;;;;0.90;0.50;;;21.10;71.50;;;;;;5077282;28;20036;-34
2022/09/11 06:40:58;;;;;;;0.40;0.38;;;21.10;71.50;;;;;;5078503;28;20050;-34
2022/09/11 06:43:24;;;;;;;0.63;0.40;;;21.20;71.60;;;;;;5076759;28;20136;-34
2022/09/11 06:45:50;;;;;;;0.40;0.40;;;21.20;71.70;;;;;;5082838;28;20032;-35
2022/09/11 06:48:17;;;;;;;0.30;0.30;;;21.20;71.60;;;;;;5087466;28;20028;-35
2022/09/11 06:50:44;;;;;;;0.32;0.32;;;21.20;71.70;;;;;;5079564;28;20092;-35
2022/09/11 06:53:10;;;;;;;0.40;0.40;;;21.20;71.70;;;;;;5081607;28;20036;-35
2022/09/11 06:55:37;;;;;;;0.40;0.40;;;21.20;71.80;;;;;;5084304;28;20071;-34
2022/09/11 06:58:03;;;;;;;;;;;21.20;71.90;;;;;;5086654;28;20102;-34
2022/09/11 07:00:30;;;;;;;0.40;0.40;;;21.20;71.80;;;;;;5086058;28;20362;-34
2022/09/11 07:02:56;;;;;;;0.43;0.40;;;21.20;71.90;;;;;;5084832;28;20043;-34
2022/09/11 07:05:23;;;;;;;0.52;0.50;;;21.20;72.00;;;;;;5084192;28;20028;-34
2022/09/11 07:07:50;;;;;;;;;;;21.20;72.00;;;;;;5087708;28;20040;-36
2022/09/11 07:10:16;;;;;;;0.50;0.47;;;21.30;72.10;;;;;;5092348;28;19976;-35
2022/09/11 07:12:42;;;;;;;0.65;0.60;;;21.30;72.20;;;;;;5074528;28;20068;-35
2022/09/11 07:15:09;;;;;;;0.40;0.40;;;21.30;72.20;;;;;;5081536;28;20051;-35
2022/09/11 07:17:35;;;;;;;0.50;0.50;;;21.30;72.30;;;;;;5069524;28;20043;-35
2022/09/11 07:20:03;;;;;;;0.40;0.40;;;21.30;72.20;;;;;;5084165;28;20032;-35
2022/09/11 07:22:39;;;;;;;0.70;0.40;;;21.30;72.20;;;;;;5084043;28;20063;-34
2022/09/11 07:25:06;;;;;;;0.50;0.35;;;21.30;72.20;;;;;;5070036;28;20028;-34
2022/09/11 07:27:32;;;;;;;0.40;0.40;;;21.30;72.30;;;;;;5076015;28;20094;-34
2022/09/11 07:29:58;;;;;;;0.73;0.30;;;21.40;72.40;;;;;;5076934;28;20045;-34
2022/09/11 07:32:25;;;;;;;0.30;0.30;;;21.40;72.60;;;;;;5083723;28;20075;-34
2022/09/11 07:34:51;;;;;;;;;;;21.40;72.70;;;;;;5084267;28;20055;-35
2022/09/11 07:37:17;;;;;;;0.40;0.40;;;21.40;72.70;;;;;;5087086;28;19912;-35
2022/09/11 07:39:43;;;;;;;0.80;0.43;;;21.40;72.70;;;;;;5066266;28;20028;-35
2022/09/11 07:42:10;;;;;;;0.40;0.40;;;21.40;72.50;;;;;;5078556;28;20629;-36
2022/09/11 07:44:37;;;;;;;0.55;0.40;;;21.40;72.40;;;;;;5084638;28;20077;-35
2022/09/11 07:47:03;;;;;;;1.10;0.40;;;21.50;72.40;;;;;;5063858;28;20037;-35
2022/09/11 07:49:29;;;;;;;0.50;0.40;;;21.50;72.40;;;;;;5085611;28;20024;-35
2022/09/11 07:51:55;;;;;;;0.45;0.40;;;21.50;72.30;;;;;;5074936;28;20528;-36
2022/09/11 07:54:21;;;;;;;0.65;0.30;;;21.50;72.30;;;;;;5083697;28;20047;-35
2022/09/11 07:56:47;;;;;;;0.52;0.40;;;21.50;72.30;;;;;;5072942;28;20032;-36
2022/09/11 07:59:13;;;;;;;0.30;0.30;;;21.50;72.30;;;;;;5103983;28;20039;-35
2022/09/11 08:01:41;;;;;;;0.30;0.30;;;21.50;72.20;;;;;;5075756;28;20399;-34
2022/09/11 08:04:09;;;;;;;0.30;0.30;;;21.60;72.40;;;;;;5063384;28;20093;-34
2022/09/11 08:06:36;;;;;;;0.40;0.40;;;21.50;73.10;;;;;;5109313;27;20036;-34
2022/09/11 08:09:05;;;;;;;0.40;0.38;;;21.60;72.50;;;;;;5078744;28;20029;-34
2022/09/11 08:11:33;;;;;;;0.30;0.30;;;21.60;72.50;;;;;;5107635;27;20048;-35
2022/09/11 08:14:00;;;;;;;0.40;0.40;;;21.60;72.50;;;;;;5085379;28;20091;-35
2022/09/11 08:16:26;;;;;;;0.38;0.30;;;21.60;72.60;;;;;;5063512;28;20055;-35
2022/09/11 08:18:53;;;;;;;0.50;0.30;;;21.50;72.40;;;;;;5103660;28;20027;-35
2022/09/11 08:21:19;;;;;;;0.40;0.40;;;21.60;72.40;;;;;;5086199;28;20073;-34
2022/09/11 08:23:46;;;;;;;0.40;0.30;;;21.60;72.50;;;;;;5098205;28;20109;-35
2022/09/11 08:26:17;;;;;;;0.40;0.40;;;21.60;72.40;;;;;;5086385;28;20036;-34
2022/09/11 08:28:43;;;;;;;0.47;0.35;;;21.60;72.50;;;;;;5092822;28;20058;-34
2022/09/11 08:31:10;;;;;;;0.30;0.30;;;21.60;72.50;;;;;;5079116;28;20709;-36
2022/09/11 08:33:36;;;;;;;0.38;0.38;;;21.60;73.30;;;;;;5087727;28;20594;-35
2022/09/11 08:36:04;;;;;;;0.40;0.35;;;21.60;72.60;;;;;;5089243;28;20034;-35
2022/09/11 08:38:31;;;;;;;0.50;0.50;;;21.60;72.70;;;;;;5087037;28;20092;-35
2022/09/11 08:40:58;;;;;;;0.32;0.32;;;21.60;72.70;;;;;;5073408;28;20045;-35
2022/09/11 08:43:32;;;;;;;0.70;0.50;;;21.70;72.70;;;;;;5073100;28;20036;-35
2022/09/11 08:46:00;;;;;;;0.50;0.30;;;21.70;72.70;;;;;;5060997;28;20341;-35
2022/09/11 08:48:41;;;;;;;0.65;0.50;;;21.70;72.70;;;;;;5080465;28;20024;-35
2022/09/11 08:51:09;;;;;;;0.60;0.50;;;21.70;72.70;;;;;;5085410;28;20032;-34
2022/09/11 08:53:35;;;;;;;0.88;0.45;;;21.70;72.70;;;;;;5087774;28;20044;-35
2022/09/11 08:56:04;;;;;;;0.37;0.37;;;21.70;72.70;;;;;;5080438;28;20057;-35
2022/09/11 08:58:37;;;;;;;0.50;0.30;;;21.70;72.70;;;;;;5076081;28;20041;-35
2022/09/11 09:01:11;;;;;;;0.30;0.30;;;21.70;72.70;;;;;;5076697;28;20083;-35
2022/09/11 09:03:52;;;;;;;0.30;0.30;;;21.70;72.60;;;;;;5079873;28;20039;-35
2022/09/11 09:06:50;;;;;;;0.40;0.40;;;21.80;72.70;;;;;;5081449;28;20055;-35
2022/09/11 09:10:07;;;;;;;0.30;0.30;;;21.80;72.80;;;;;;5077947;28;20070;-35
2022/09/11 09:13:01;;;;;;;0.80;0.40;;;21.70;72.80;;;;;;5058695;28;20035;-35
2022/09/11 09:15:42;;;;;;;0.65;0.43;;;21.80;72.80;;;;;;5058362;28;20056;-35
2022/09/11 09:18:11;;;;;;;0.40;0.40;;;21.80;72.80;;;;;;5024745;28;20048;-35
2022/09/11 09:20:41;;;;;;;0.40;0.30;;;21.80;72.80;;;;;;5054093;28;20037;-35
2022/09/11 09:23:16;;;;;;;0.30;0.30;;;21.80;72.90;;;;;;5040730;28;20042;-35
2022/09/11 09:25:42;;;;;;;0.40;0.32;;;21.80;72.90;;;;;;5061132;28;20036;-35
2022/09/11 09:28:25;;;;;;;0.40;0.40;;;21.80;73.00;;;;;;5062754;28;20036;-34
2022/09/11 09:30:59;;;;;;;0.40;0.30;;;21.80;73.00;;;;;;5056838;28;20040;-34
2022/09/11 09:33:29;;;;;;;0.50;0.40;;;21.80;72.90;;;;;;5051423;28;20036;-35
2022/09/11 09:35:56;;;;;;;0.30;0.30;;;21.80;73.10;;;;;;5060432;28;20572;-34
2022/09/11 09:38:26;;;;;;;0.35;0.35;;;21.80;73.10;;;;;;5065530;28;20070;-35
2022/09/11 09:40:58;;;;;;;1.48;0.47;;;21.80;73.00;;;;;;5069189;28;20040;-35
2022/09/11 09:43:39;;;;;;;0.40;0.40;;;21.80;73.00;;;;;;5074562;28;20111;-34
2022/09/11 09:46:26;;;;;;;0.55;0.35;;;21.80;72.90;;;;;;5067155;28;20119;-35
2022/09/11 09:48:54;;;;;;;0.45;0.45;;;21.90;73.00;;;;;;5072333;28;20052;-35
2022/09/11 09:51:20;;;;;;;0.68;0.50;;;21.90;72.80;;;;;;5097151;28;20065;-35
2022/09/11 09:53:47;;;;;;;0.40;0.40;;;21.90;72.90;;;;;;5067165;28;20436;-35
2022/09/11 09:56:17;;;;;;;0.55;0.45;;;21.90;73.00;;;;;;5066698;28;20029;-35
2022/09/11 09:59:06;;;;;;;0.82;0.55;;;21.90;73.00;;;;;;5082428;28;22508;-35
2022/09/11 10:01:51;;;;;;;0.40;0.30;;;21.90;73.00;;;;;;5066099;28;20065;-35
2022/09/11 10:04:21;;;;;;;0.52;0.52;;;21.90;73.30;;;;;;5078835;28;20083;-35
2022/09/11 10:06:52;;;;;;;0.60;0.40;;;21.90;73.30;;;;;;5065120;28;20104;-35
2022/09/11 10:09:18;;;;;;;0.47;0.45;;;21.90;73.10;;;;;;5090324;28;20032;-34
2022/09/11 10:11:45;;;;;;;0.93;0.40;;;22.00;73.90;;;;;;5068736;28;20076;-34
2022/09/11 10:14:18;;;;;;;0.40;0.30;;;21.90;73.00;;;;;;5068136;28;20036;-34
2022/09/11 10:16:49;;;;;;;0.30;0.30;;;22.00;73.10;;;;;;5081949;28;20048;-34
2022/09/11 10:19:34;;;;;;;0.38;0.38;;;22.00;73.10;;;;;;5067678;28;20529;-34
2022/09/11 10:22:30;;;;;;;0.32;0.32;;;22.00;73.20;;;;;;5062248;28;20024;-34
2022/09/11 10:25:00;;;;;;;0.50;0.50;;;22.00;73.20;;;;;;5069346;28;20410;-35
2022/09/11 10:27:27;;;;;;;0.43;0.40;;;22.00;73.20;;;;;;5069279;28;20114;-35
2022/09/11 10:29:53;;;;;;;;;;;22.00;73.10;;;;;;5075606;28;20093;-35
2022/09/11 10:32:19;;;;;;;0.50;0.43;;;22.00;73.10;;;;;;5071718;28;19955;-35
2022/09/11 10:34:47;;;;;;;0.47;0.40;;;22.00;73.10;;;;;;5072301;28;20695;-35
2022/09/11 10:37:13;;;;;;;1.63;0.40;;;22.00;73.90;;;;;;5076834;28;20028;-35
2022/09/11 10:39:40;;;;;;;0.50;0.50;;;22.00;73.20;;;;;;5070065;28;20028;-35
2022/09/11 10:42:26;;;;;;;0.50;0.40;;;22.00;73.30;;;;;;5064944;28;20035;-35
2022/09/11 10:44:53;;;;;;;0.60;0.45;;;22.00;73.40;;;;;;5074075;28;20091;-35
2022/09/11 10:47:27;;;;;;;0.43;0.40;;;22.00;73.60;;;;;;5070654;28;20502;-35
2022/09/11 10:50:19;;;;;;;0.43;0.43;;;22.10;73.70;;;;;;5075750;28;20035;-35
2022/09/11 10:52:57;;;;;;;0.40;0.40;;;22.10;73.60;;;;;;5075331;28;20152;-35
2022/09/11 10:55:47;;;;;;;0.55;0.40;;;22.10;73.50;;;;;;5077298;28;20067;-35
2022/09/11 10:58:18;;;;;;;0.40;0.40;;;22.10;73.40;;;;;;5074210;28;20041;-35
2022/09/11 11:00:44;;;;;;;0.40;0.40;;;22.10;73.40;;;;;;5074961;28;20092;-35
2022/09/11 11:03:13;;;;;;;0.35;0.35;;;22.10;73.30;;;;;;5077441;28;20028;-35
2022/09/11 11:05:58;;;;;;;0.43;0.43;;;22.10;73.40;;;;;;5073746;28;20038;-35
2022/09/11 11:08:30;;;;;;;0.40;0.40;;;22.10;73.40;;;;;;5077957;28;20032;-35
2022/09/11 11:11:03;;;;;;;0.43;0.43;;;22.20;73.40;;;;;;5081430;28;20051;-35
2022/09/11 11:14:14;;;;;;;0.63;0.50;;;22.10;73.40;;;;;;5079398;28;20054;-35
2022/09/11 11:16:51;;;;;;;0.60;0.50;;;22.20;73.50;;;;;;5076728;28;20047;-36
2022/09/11 11:19:37;;;;;;;0.40;0.35;;;22.10;73.40;;;;;;5078581;28;20032;-35
2022/09/11 11:22:12;;;;;;;0.50;0.50;;;22.20;73.40;;;;;;5077844;28;20036;-36
2022/09/11 11:24:48;;;;;;;0.32;0.32;;;22.20;73.50;;;;;;5086442;28;20519;-35
2022/09/11 11:27:33;;;;;;;0.88;0.40;;;22.20;73.40;;;;;;5072923;28;20080;-35
2022/09/11 11:30:19;;;;;;;0.47;0.47;;;22.20;73.40;;;;;;5078665;28;20053;-35
2022/09/11 11:33:13;;;;;;;0.40;0.40;;;22.20;73.40;;;;;;5091969;28;20036;-35
2022/09/11 11:36:01;;;;;;;0.40;0.40;;;22.20;73.40;;;;;;5084625;28;20028;-35
2022/09/11 11:38:40;;;;;;;;;;;22.20;73.50;;;;;;5062996;28;20480;-35
2022/09/11 11:41:15;;;;;;;0.53;0.40;;;22.20;73.70;;;;;;5079256;28;19944;-35
2022/09/11 11:43:41;;;;;;;0.40;0.40;;;22.20;73.80;;;;;;5074370;28;20044;-35
2022/09/11 11:46:18;;;;;;;0.40;0.40;;;22.20;73.80;;;;;;5079133;28;20025;-35
2022/09/11 11:48:59;;;;;;;0.38;0.38;;;22.20;73.80;;;;;;5074046;28;20036;-35
2022/09/11 11:51:32;;;;;;;0.40;0.40;;;22.20;73.80;;;;;;5095318;28;20816;-35
2022/09/11 11:54:10;;;;;;;0.60;0.50;;;22.20;73.80;;;;;;5064637;28;20031;-35
2022/09/11 11:57:12;;;;;;;0.40;0.40;;;22.20;73.80;;;;;;5074708;28;20029;-34
2022/09/11 11:59:45;;;;;;;0.63;0.60;;;22.20;73.80;;;;;;5075945;28;20032;-36
2022/09/11 12:02:19;;;;;;;0.80;0.80;;;22.30;74.00;;;;;;5079539;28;20056;-36
2022/09/11 12:04:54;;;;;;;1.13;0.80;;;22.30;73.80;;;;;;5078092;28;20040;-36
2022/09/11 12:07:29;;;;;;;1.05;0.95;;;22.30;73.70;;;;;;5072787;28;20051;-36
2022/09/11 12:09:57;;;;;;;0.70;0.70;;;22.30;73.70;;;;;;5073451;28;20054;-35
2022/09/11 12:12:33;;;;;;;0.82;0.80;;;22.30;73.60;;;;;;5073812;28;20032;-34
2022/09/11 12:15:08;;;;;;;0.80;0.73;;;22.30;73.60;;;;;;5077528;28;20027;-35
2022/09/11 12:17:38;;;;;;;1.77;0.77;;;22.30;73.60;;;;;;5075830;28;20043;-35
2022/09/11 12:20:10;;;;;;;0.73;0.70;;;22.30;73.40;;;;;;5075462;28;20043;-35
2022/09/11 12:22:49;;;;;;;0.75;0.75;;;22.30;73.50;;;;;;5078049;28;20032;-35
2022/09/11 12:25:18;;;;;;;0.70;0.68;;;22.30;73.70;;;;;;5063322;28;20555;-35
2022/09/11 12:27:47;;;;;;;0.70;0.70;;;22.30;73.70;;;;;;5079461;28;20595;-35
2022/09/11 12:30:16;;;;;;;0.57;0.57;;;22.40;73.80;;;;;;5084120;28;20055;-35
2022/09/11 12:32:46;;;;;;;0.80;0.80;;;22.30;73.70;;;;;;5073909;28;20056;-35
2022/09/11 12:35:45;;;;;;;0.75;0.60;;;22.30;73.60;;;;;;5114065;27;20028;-35
2022/09/11 12:38:43;;;;;;;1.80;0.90;;;22.40;73.60;;;;;;5072279;28;20040;-34
2022/09/11 12:41:21;;;;;;;1.10;1.00;;;22.40;73.60;;;;;;5070913;28;20040;-35
2022/09/11 12:43:48;;;;;;;1.05;0.95;;;22.40;73.20;;;;;;5075805;28;20040;-35
2022/09/11 12:46:20;;;;;;;1.00;0.90;;;22.40;72.60;;;;;;5081873;28;20083;-33
2022/09/11 12:48:48;;;;;;;0.98;0.88;;;22.30;71.70;;;;;;5076416;28;20546;-35
2022/09/11 12:51:19;;;;;;;;;;;22.40;71.90;;;;;;5079913;28;20040;-34
2022/09/11 12:53:46;;;;;;;1.10;1.00;;;22.40;71.90;;;;;;5074027;28;19991;-34
2022/09/11 12:56:18;;;;;;;1.00;1.00;;;22.40;72.00;;;;;;5070157;28;21275;-34
2022/09/11 12:58:45;;;;;;;1.05;0.95;;;22.40;72.20;;;;;;5075973;28;20572;-34
2022/09/11 13:01:13;;;;;;;;;;;22.40;72.30;;;;;;5067153;28;20035;-34
2022/09/11 13:03:52;;;;;;;1.08;0.93;;;22.40;72.40;;;;;;5077817;28;20078;-34
2022/09/11 13:06:18;;;;;;;1.05;0.95;;;22.40;72.50;;;;;;5084819;28;20043;-34
2022/09/11 13:08:47;;;;;;;0.80;0.80;;;22.40;72.60;;;;;;5068540;28;20119;-34
2022/09/11 13:11:42;;;;;;;1.05;0.80;;;22.40;72.60;;;;;;5081066;28;20116;-35
2022/09/11 13:14:47;;;;;;;1.30;1.10;;;22.40;72.60;;;;;;5076311;28;20024;-35